Time;durP1;ratioP1;P1;durP2;ratioP2;P2;SDS_P1;SDS_P2;PMS_P1;PMS_P2;Temp;Humidity;BMP_temperature;BMP_pressure;BME280_temperature;BME280_humidity;BME280_pressure;Samples;Min_cycle;Max_cycle;Signal;HPM_P1;HPM_P2
2022/09/22 00:00:57;;;;;;;73.47;51.13;;;26.00;99.90;;;;;;5032642;28;20030;-70
2022/09/22 00:03:24;;;;;;;95.38;68.50;;;26.00;99.90;;;;;;5034641;28;20024;-70
2022/09/22 00:05:59;;;;;;;92.35;60.33;;;26.00;99.90;;;;;;5032262;28;20029;-70
2022/09/22 00:08:27;;;;;;;84.60;54.78;;;26.10;99.90;;;;;;5034443;28;20060;-70
2022/09/22 00:11:16;;;;;;;82.80;65.05;;;26.10;99.90;;;;;;5034505;28;20025;-70
2022/09/22 00:13:44;;;;;;;194.05;172.57;;;26.10;99.90;;;;;;5030809;28;20026;-70
2022/09/22 00:16:13;;;;;;;72.00;53.03;;;26.10;99.90;;;;;;5031882;28;20030;-71
2022/09/22 00:18:40;;;;;;;60.70;44.92;;;26.20;99.90;;;;;;5034318;28;20100;-70
2022/09/22 00:21:11;;;;;;;97.00;65.05;;;26.20;99.90;;;;;;5034207;28;20060;-70
2022/09/22 00:23:39;;;;;;;112.18;85.80;;;26.30;99.90;;;;;;5034048;28;20057;-70
2022/09/22 00:26:08;;;;;;;86.15;62.38;;;26.40;99.90;;;;;;5034452;28;20029;-71
2022/09/22 00:28:34;;;;;;;81.50;56.92;;;26.40;99.90;;;;;;5033997;28;20017;-70
2022/09/22 00:31:05;;;;;;;81.18;55.15;;;26.50;99.90;;;;;;5034224;28;20021;-70
2022/09/22 00:33:32;;;;;;;71.05;53.75;;;26.40;99.90;;;;;;5031427;28;20014;-70
2022/09/22 00:36:01;;;;;;;71.85;52.63;;;26.40;99.90;;;;;;5034336;28;20018;-70
2022/09/22 00:38:28;;;;;;;67.47;51.35;;;26.40;99.90;;;;;;5034304;28;20024;-70
2022/09/22 00:40:55;;;;;;;61.70;44.65;;;26.40;99.90;;;;;;5033537;28;20029;-71
2022/09/22 00:43:24;;;;;;;60.03;43.35;;;26.40;99.90;;;;;;5034330;28;20133;-70
2022/09/22 00:45:58;;;;;;;62.78;46.38;;;26.40;99.90;;;;;;5033958;28;20021;-70
2022/09/22 00:48:28;;;;;;;58.38;43.38;;;26.50;99.90;;;;;;5033872;28;20041;-68
2022/09/22 00:50:57;;;;;;;60.15;43.65;;;26.50;99.90;;;;;;5033823;28;20010;-71
2022/09/22 00:53:24;;;;;;;62.63;42.00;;;26.50;99.90;;;;;;5016002;28;20029;-67
2022/09/22 00:55:58;;;;;;;52.90;38.40;;;26.50;99.90;;;;;;5032882;28;20044;-66
2022/09/22 00:58:30;;;;;;;52.35;36.83;;;26.60;99.90;;;;;;5033647;28;20464;-69
2022/09/22 01:00:57;;;;;;;53.15;38.30;;;26.70;99.90;;;;;;5030824;28;20021;-66
2022/09/22 01:03:26;;;;;;;54.78;37.45;;;26.70;99.90;;;;;;5033719;28;20028;-68
2022/09/22 01:05:55;;;;;;;59.00;38.45;;;26.80;99.90;;;;;;5033841;28;20243;-69
2022/09/22 01:08:24;;;;;;;61.17;38.67;;;26.90;99.90;;;;;;5033269;28;20017;-71
2022/09/22 01:10:52;;;;;;;54.67;39.03;;;27.00;99.90;;;;;;5033525;28;20025;-69
2022/09/22 01:13:23;;;;;;;60.40;39.97;;;27.00;99.90;;;;;;5031257;28;20494;-71
2022/09/22 01:15:53;;;;;;;63.97;41.88;;;27.10;99.90;;;;;;5033413;28;20030;-69
2022/09/22 01:18:29;;;;;;;61.08;39.08;;;27.10;99.90;;;;;;5031194;28;20021;-67
2022/09/22 01:21:19;;;;;;;48.13;35.75;;;27.20;99.90;;;;;;5032637;28;20201;-67
2022/09/22 01:23:47;;;;;;;52.65;37.75;;;27.30;99.90;;;;;;5011101;28;20094;-69
2022/09/22 01:26:17;;;;;;;71.20;48.03;;;27.30;99.90;;;;;;5033956;28;20443;-69
2022/09/22 01:28:47;;;;;;;81.88;50.08;;;27.30;99.90;;;;;;5033392;28;20025;-68
2022/09/22 01:31:16;;;;;;;61.53;38.58;;;27.30;99.90;;;;;;5034471;28;20128;-68
2022/09/22 01:33:46;;;;;;;104.57;64.10;;;27.40;99.90;;;;;;5034488;28;20026;-67
2022/09/22 01:36:18;;;;;;;251.93;146.18;;;27.40;99.90;;;;;;5035161;28;20095;-68
2022/09/22 01:38:52;;;;;;;;;;;27.50;99.90;;;;;;5035256;28;20108;-68
2022/09/22 01:41:45;;;;;;;211.82;108.68;;;27.60;99.90;;;;;;5035014;28;19979;-69
2022/09/22 01:44:16;;;;;;;;;;;27.60;99.90;;;;;;5035051;28;20038;-67
2022/09/22 01:49:37;;;;;;;137.57;69.13;;;27.70;99.90;;;;;;5053028;28;20053;-69
2022/09/22 01:52:12;;;;;;;78.35;41.28;;;27.70;99.90;;;;;;5054448;28;20507;-68
2022/09/22 01:54:46;;;;;;;71.88;43.63;;;27.80;99.90;;;;;;5058290;28;20029;-68
2022/09/22 01:57:22;;;;;;;116.10;61.58;;;27.90;99.90;;;;;;5058733;28;20091;-68
2022/09/22 01:59:54;;;;;;;60.97;37.45;;;28.00;99.90;;;;;;5058505;28;20387;-68
2022/09/22 02:02:41;;;;;;;74.82;40.95;;;28.00;99.90;;;;;;5082005;22;20089;-66
2022/09/22 02:05:14;;;;;;;64.93;38.50;;;28.20;99.90;;;;;;5049239;28;20059;-64
2022/09/22 02:07:45;;;;;;;74.65;45.63;;;28.20;99.90;;;;;;5057775;28;20190;-65
2022/09/22 02:10:16;;;;;;;66.05;39.05;;;28.30;99.90;;;;;;5057765;28;20082;-65
2022/09/22 02:12:43;;;;;;;50.42;31.25;;;28.30;99.90;;;;;;5058018;28;20021;-65
2022/09/22 02:15:58;;;;;;;47.30;28.67;;;28.30;99.90;;;;;;5058059;28;20017;-66
2022/09/22 02:18:00;;;;;;;37.28;26.60;;;28.40;99.90;;;;;;5056972;28;20112;-65
2022/09/22 02:20:27;;;;;;;41.60;25.70;;;28.50;99.90;;;;;;5058002;28;20032;-65
2022/09/22 02:22:54;;;;;;;41.60;27.45;;;28.60;99.90;;;;;;5057604;28;20028;-66
2022/09/22 02:25:23;;;;;;;43.92;29.38;;;28.70;99.90;;;;;;5057559;28;20042;-66
2022/09/22 02:27:53;;;;;;;43.53;28.23;;;28.80;99.90;;;;;;5057122;28;20029;-65
2022/09/22 02:30:21;;;;;;;62.00;38.25;;;28.90;99.90;;;;;;5057578;28;20364;-65
2022/09/22 02:32:50;;;;;;;44.33;28.70;;;29.10;99.90;;;;;;5057794;28;20032;-66
2022/09/22 02:35:17;;;;;;;44.42;24.38;;;29.20;99.90;;;;;;5057598;28;20087;-65
2022/09/22 02:37:54;;;;;;;88.65;56.05;;;29.30;99.90;;;;;;5057410;28;20390;-66
2022/09/22 02:40:26;;;;;;;73.55;44.92;;;29.30;99.90;;;;;;5057548;28;20025;-66
2022/09/22 02:42:59;;;;;;;;;;;29.30;99.90;;;;;;5058061;28;20032;-65
2022/09/22 02:45:32;;;;;;;37.58;22.15;;;29.30;99.90;;;;;;5057632;28;19954;-66
2022/09/22 02:48:05;;;;;;;66.53;40.60;;;29.30;99.90;;;;;;5056960;28;20025;-65
2022/09/22 02:50:33;;;;;;;54.03;33.45;;;29.30;99.90;;;;;;5056277;28;20025;-65
2022/09/22 02:53:04;;;;;;;46.88;27.85;;;29.30;99.90;;;;;;5056058;28;20025;-64
2022/09/22 02:55:31;;;;;;;89.10;55.63;;;29.40;99.90;;;;;;5056460;28;20033;-65
2022/09/22 02:57:57;;;;;;;259.85;152.43;;;29.40;99.90;;;;;;5061076;28;20024;-64
2022/09/22 03:00:25;;;;;;;284.15;165.13;;;29.40;99.90;;;;;;5076396;28;20025;-70
2022/09/22 03:02:51;;;;;;;206.70;120.22;;;29.40;99.90;;;;;;5075853;28;20068;-72
2022/09/22 03:05:18;;;;;;;237.68;130.65;;;29.40;99.90;;;;;;5075159;28;20099;-72
2022/09/22 03:07:44;;;;;;;119.25;68.80;;;29.50;99.90;;;;;;5072046;28;20025;-71
2022/09/22 03:10:11;;;;;;;86.25;52.15;;;29.70;99.90;;;;;;5067280;28;20023;-70
2022/09/22 03:12:41;;;;;;;88.13;51.78;;;29.80;99.90;;;;;;5076249;28;20024;-72
2022/09/22 03:15:09;;;;;;;109.80;64.55;;;30.00;99.90;;;;;;5076014;28;20033;-70
2022/09/22 03:17:36;;;;;;;74.43;42.50;;;30.20;99.90;;;;;;5076027;28;20027;-68
2022/09/22 03:20:05;;;;;;;82.55;43.35;;;30.10;99.90;;;;;;5075820;28;20020;-69
2022/09/22 03:22:32;;;;;;;59.42;35.30;;;30.10;99.90;;;;;;5075938;28;20040;-69
2022/09/22 03:24:58;;;;;;;37.97;25.15;;;30.30;99.90;;;;;;5075972;28;20096;-68
2022/09/22 03:27:26;;;;;;;33.47;21.48;;;30.20;99.90;;;;;;5057110;28;20028;-70
2022/09/22 03:29:53;;;;;;;41.90;25.15;;;30.20;99.90;;;;;;5076005;28;20086;-70
2022/09/22 03:32:21;;;;;;;119.38;82.45;;;30.10;99.90;;;;;;5075947;28;20051;-71
2022/09/22 03:34:48;;;;;;;116.45;65.82;;;30.10;99.90;;;;;;5075845;28;20024;-70
2022/09/22 03:37:16;;;;;;;65.95;43.22;;;30.20;99.90;;;;;;5076214;28;20017;-70
2022/09/22 03:39:42;;;;;;;51.67;35.03;;;30.20;99.90;;;;;;5075718;28;20077;-72
2022/09/22 03:42:09;;;;;;;29.67;19.10;;;30.40;99.90;;;;;;5072363;28;20020;-73
2022/09/22 03:44:36;;;;;;;40.83;22.70;;;30.50;99.90;;;;;;5066654;28;20028;-66
2022/09/22 03:47:03;;;;;;;36.55;22.42;;;30.50;99.90;;;;;;5055012;28;20071;-66
2022/09/22 03:49:30;;;;;;;35.22;23.67;;;30.60;99.90;;;;;;5054548;28;20029;-66
2022/09/22 03:51:57;;;;;;;30.85;20.80;;;30.60;99.90;;;;;;5052076;28;20060;-66
2022/09/22 03:54:23;;;;;;;30.35;21.95;;;30.60;99.90;;;;;;5053880;28;20048;-66
2022/09/22 03:56:50;;;;;;;31.45;21.50;;;30.60;99.90;;;;;;5053146;28;20064;-65
2022/09/22 03:59:17;;;;;;;31.48;22.40;;;30.50;99.90;;;;;;5051428;28;20342;-66
2022/09/22 04:01:44;;;;;;;52.78;30.33;;;30.40;99.90;;;;;;5053762;28;20025;-66
2022/09/22 04:04:10;;;;;;;49.15;31.15;;;30.40;99.90;;;;;;5052387;28;20041;-67
2022/09/22 04:06:37;;;;;;;49.25;30.00;;;30.40;99.90;;;;;;5051522;28;20025;-66
2022/09/22 04:09:04;;;;;;;33.67;23.70;;;30.40;99.90;;;;;;5054853;28;20458;-65
2022/09/22 04:11:31;;;;;;;31.20;21.25;;;30.40;99.90;;;;;;5054189;28;20017;-66
2022/09/22 04:14:00;;;;;;;32.25;22.90;;;30.40;99.90;;;;;;5051754;28;20086;-65
2022/09/22 04:16:28;;;;;;;27.63;21.17;;;30.50;99.90;;;;;;5057619;28;20131;-65
2022/09/22 04:18:55;;;;;;;28.50;22.73;;;30.50;99.90;;;;;;5054757;28;20048;-66
2022/09/22 04:21:22;;;;;;;37.85;24.75;;;30.50;99.90;;;;;;5054264;28;20066;-67
2022/09/22 04:23:48;;;;;;;51.85;32.47;;;30.50;99.90;;;;;;5054274;28;20029;-65
2022/09/22 04:26:16;;;;;;;37.58;23.90;;;30.40;99.90;;;;;;5053886;28;20023;-66
2022/09/22 04:28:42;;;;;;;34.67;23.80;;;30.40;99.90;;;;;;5054412;28;20487;-65
2022/09/22 04:31:09;;;;;;;34.13;25.60;;;30.40;99.90;;;;;;5054592;28;20021;-65
2022/09/22 04:33:36;;;;;;;28.35;21.27;;;30.30;99.90;;;;;;5036449;28;20379;-65
2022/09/22 04:36:02;;;;;;;30.50;22.40;;;30.30;99.90;;;;;;5054441;28;20092;-65
2022/09/22 04:38:29;;;;;;;35.67;23.65;;;30.30;99.90;;;;;;5054082;28;20143;-65
2022/09/22 04:40:56;;;;;;;32.85;20.13;;;30.30;99.90;;;;;;5053614;28;20028;-66
2022/09/22 04:43:22;;;;;;;36.08;21.50;;;30.30;99.90;;;;;;5054682;28;20096;-65
2022/09/22 04:45:49;;;;;;;31.17;20.65;;;30.30;99.90;;;;;;5054708;28;20020;-65
2022/09/22 04:48:16;;;;;;;33.15;20.45;;;30.20;99.90;;;;;;5054226;28;20017;-66
2022/09/22 04:50:43;;;;;;;39.38;21.25;;;30.30;99.90;;;;;;5036660;28;20416;-66
2022/09/22 04:53:09;;;;;;;29.90;20.05;;;30.30;99.90;;;;;;5036365;28;20162;-66
2022/09/22 04:55:36;;;;;;;30.70;20.10;;;30.30;99.90;;;;;;5053590;28;20070;-66
2022/09/22 04:58:03;;;;;;;29.40;19.00;;;30.30;99.90;;;;;;5054685;28;20048;-66
2022/09/22 05:00:29;;;;;;;32.78;19.58;;;30.30;99.90;;;;;;5053572;28;20367;-65
2022/09/22 05:02:56;;;;;;;26.00;19.48;;;30.30;99.90;;;;;;5053283;28;20477;-66
2022/09/22 05:05:23;;;;;;;28.42;19.50;;;30.30;99.90;;;;;;5054298;28;20070;-65
2022/09/22 05:07:53;;;;;;;30.38;20.60;;;30.40;99.90;;;;;;5053680;28;20151;-65
2022/09/22 05:10:24;;;;;;;33.83;19.45;;;30.40;99.90;;;;;;5050917;28;20059;-65
2022/09/22 05:12:52;;;;;;;33.60;19.92;;;30.50;99.90;;;;;;5053242;28;20456;-67
2022/09/22 05:15:22;;;;;;;25.90;19.98;;;30.50;99.90;;;;;;5051411;28;20049;-66
2022/09/22 05:17:51;;;;;;;31.08;22.83;;;30.70;99.90;;;;;;5053499;28;20036;-66
2022/09/22 05:20:20;;;;;;;28.65;21.75;;;30.80;99.90;;;;;;5050653;28;20025;-67
2022/09/22 05:22:46;;;;;;;32.85;21.95;;;30.80;99.90;;;;;;5053651;28;20037;-65
2022/09/22 05:25:16;;;;;;;35.05;20.60;;;30.90;99.90;;;;;;5053039;28;20483;-66
2022/09/22 05:27:46;;;;;;;28.05;19.73;;;30.90;99.90;;;;;;5052859;28;20104;-65
2022/09/22 05:30:13;;;;;;;22.88;17.60;;;30.90;99.90;;;;;;5053441;28;20025;-66
2022/09/22 05:32:45;;;;;;;28.77;19.15;;;30.80;99.90;;;;;;5052960;28;20017;-65
2022/09/22 05:35:13;;;;;;;26.55;18.52;;;30.70;99.90;;;;;;5053384;28;20025;-66
2022/09/22 05:37:43;;;;;;;27.05;20.38;;;30.70;99.90;;;;;;5054224;28;20529;-66
2022/09/22 05:40:11;;;;;;;28.90;20.83;;;30.70;99.90;;;;;;5058595;28;20029;-66
2022/09/22 05:42:43;;;;;;;29.50;19.42;;;30.70;99.90;;;;;;5054036;28;20491;-66
2022/09/22 05:45:10;;;;;;;27.08;18.48;;;30.70;99.90;;;;;;5100098;22;20426;-67
2022/09/22 05:47:38;;;;;;;29.50;18.50;;;30.60;99.90;;;;;;5094544;28;20031;-66
2022/09/22 05:50:06;;;;;;;28.05;18.88;;;30.70;99.90;;;;;;5094544;28;20024;-67
2022/09/22 05:52:33;;;;;;;25.38;17.80;;;30.80;99.90;;;;;;5094241;28;20035;-66
2022/09/22 05:54:59;;;;;;;31.80;19.45;;;30.80;99.90;;;;;;5094362;28;20023;-66
2022/09/22 05:57:26;;;;;;;27.65;18.33;;;30.90;99.90;;;;;;5094321;28;20018;-66
2022/09/22 05:59:53;;;;;;;26.00;20.17;;;31.00;99.90;;;;;;5074245;28;20513;-67
2022/09/22 06:02:22;;;;;;;29.63;21.70;;;30.90;99.90;;;;;;5073915;28;20467;-67
2022/09/22 06:04:49;;;;;;;24.55;20.40;;;30.90;99.90;;;;;;5073807;28;20124;-66
2022/09/22 06:07:16;;;;;;;28.10;21.17;;;30.80;99.90;;;;;;5073596;28;20024;-66
2022/09/22 06:09:42;;;;;;;28.90;21.70;;;30.80;99.90;;;;;;5073286;28;20012;-67
2022/09/22 06:12:09;;;;;;;32.03;23.08;;;30.80;99.90;;;;;;5072870;28;20467;-67
2022/09/22 06:14:35;;;;;;;34.58;23.55;;;30.80;99.90;;;;;;5072871;28;20037;-66
2022/09/22 06:17:03;;;;;;;38.72;23.55;;;30.70;99.90;;;;;;5073087;28;20017;-67
2022/09/22 06:19:29;;;;;;;30.45;22.20;;;30.60;99.90;;;;;;5073169;28;20033;-67
2022/09/22 06:21:56;;;;;;;31.98;22.00;;;30.70;99.90;;;;;;5072950;28;20433;-67
2022/09/22 06:24:23;;;;;;;37.83;24.25;;;30.70;99.90;;;;;;5073095;28;20024;-67
2022/09/22 06:26:50;;;;;;;44.17;27.63;;;30.60;99.90;;;;;;5071549;28;20344;-66
2022/09/22 06:29:16;;;;;;;43.03;27.48;;;30.60;99.90;;;;;;5072994;28;20021;-67
2022/09/22 06:31:43;;;;;;;50.97;34.85;;;30.60;99.90;;;;;;5073012;28;20032;-67
2022/09/22 06:34:10;;;;;;;54.33;35.15;;;30.50;99.90;;;;;;5072989;28;20029;-67
2022/09/22 06:36:37;;;;;;;55.33;35.63;;;30.30;99.90;;;;;;5072292;28;20498;-67
2022/09/22 06:39:04;;;;;;;41.33;29.33;;;29.90;99.90;;;;;;5073873;28;20028;-67
2022/09/22 06:41:32;;;;;;;41.58;29.55;;;29.50;99.90;;;;;;5075956;28;20028;-67
2022/09/22 06:43:59;;;;;;;36.05;25.80;;;29.30;99.90;;;;;;5075748;28;20021;-64
2022/09/22 06:46:29;;;;;;;46.28;29.88;;;29.10;99.90;;;;;;5076320;28;20047;-66
2022/09/22 06:48:56;;;;;;;37.15;30.13;;;29.20;99.90;;;;;;5076341;28;20021;-65
2022/09/22 06:51:25;;;;;;;53.20;38.13;;;29.30;99.90;;;;;;5076116;28;20016;-67
2022/09/22 06:53:55;;;;;;;77.15;51.83;;;29.30;99.90;;;;;;5076158;28;20031;-65
2022/09/22 06:56:24;;;;;;;86.82;67.38;;;29.30;99.90;;;;;;5076057;28;20017;-66
2022/09/22 06:58:51;;;;;;;89.65;65.80;;;29.40;99.90;;;;;;5075714;28;20067;-67
2022/09/22 07:01:19;;;;;;;73.35;52.70;;;29.40;99.90;;;;;;5076240;28;20025;-66
2022/09/22 07:03:45;;;;;;;42.10;33.60;;;29.40;99.90;;;;;;5076111;28;20489;-66
2022/09/22 07:06:17;;;;;;;48.83;36.10;;;29.20;99.90;;;;;;5075948;28;20021;-66
2022/09/22 07:08:47;;;;;;;31.73;23.75;;;29.00;99.90;;;;;;5076006;28;20444;-66
2022/09/22 07:11:22;;;;;;;18.92;12.38;;;28.80;99.90;;;;;;5075831;28;20023;-66
2022/09/22 07:13:52;;;;;;;22.98;13.48;;;28.50;99.90;;;;;;5076080;28;20073;-66
2022/09/22 07:16:21;;;;;;;39.65;15.00;;;28.30;99.90;;;;;;5076020;28;20055;-66
2022/09/22 07:18:50;;;;;;;35.83;13.45;;;28.00;99.90;;;;;;5075172;28;20020;-66
2022/09/22 07:21:19;;;;;;;24.30;11.57;;;27.90;99.90;;;;;;5067570;28;20478;-68
2022/09/22 07:23:48;;;;;;;16.92;9.90;;;27.70;99.90;;;;;;5074813;28;20024;-65
2022/09/22 07:26:18;;;;;;;20.67;11.25;;;27.70;99.90;;;;;;5072062;28;20486;-66
2022/09/22 07:28:49;;;;;;;17.63;10.63;;;27.60;99.90;;;;;;5074843;28;20021;-65
2022/09/22 07:31:16;;;;;;;16.73;10.82;;;27.60;99.90;;;;;;5072937;28;20017;-65
2022/09/22 07:33:44;;;;;;;14.93;10.00;;;27.60;99.90;;;;;;5074653;28;20016;-65
2022/09/22 07:36:14;;;;;;;13.70;9.20;;;27.50;99.90;;;;;;5074891;28;20029;-65
2022/09/22 07:38:43;;;;;;;14.20;9.02;;;27.50;99.90;;;;;;5074785;28;20032;-65
2022/09/22 07:41:13;;;;;;;16.83;9.55;;;27.60;99.90;;;;;;5074707;28;20016;-66
2022/09/22 07:43:41;;;;;;;11.75;8.68;;;27.50;99.90;;;;;;5075036;28;20021;-66
2022/09/22 07:46:08;;;;;;;14.75;9.45;;;27.60;99.90;;;;;;5074406;28;20091;-66
2022/09/22 07:48:36;;;;;;;16.50;9.45;;;27.70;99.90;;;;;;5072181;28;20029;-65
2022/09/22 07:51:09;;;;;;;12.63;8.50;;;27.70;99.90;;;;;;5072793;28;20070;-65
2022/09/22 07:53:36;;;;;;;20.05;10.50;;;27.60;99.90;;;;;;5071441;28;20019;-66
2022/09/22 07:56:05;;;;;;;20.30;12.85;;;27.70;99.90;;;;;;5074038;28;20028;-66
2022/09/22 07:58:33;;;;;;;20.00;11.55;;;27.70;99.90;;;;;;5092188;22;20082;-66
2022/09/22 08:01:05;;;;;;;18.40;12.05;;;27.70;99.90;;;;;;5063902;28;20379;-65
2022/09/22 08:03:36;;;;;;;22.63;14.05;;;27.70;99.90;;;;;;5061937;28;20435;-65
2022/09/22 08:08:35;;;;;;;;;;;27.90;99.90;;;;;;5061418;28;20017;-66
2022/09/22 08:11:08;;;;;;;34.15;20.20;;;27.90;99.90;;;;;;5064126;28;19908;-66
2022/09/22 08:13:35;;;;;;;30.98;18.15;;;27.90;99.90;;;;;;5060566;28;20017;-66
2022/09/22 08:16:03;;;;;;;26.35;14.88;;;27.90;99.90;;;;;;5064342;28;20046;-66
2022/09/22 08:18:31;;;;;;;29.25;17.83;;;27.80;99.90;;;;;;5065388;28;20024;-66
2022/09/22 08:21:00;;;;;;;27.23;17.27;;;27.80;99.90;;;;;;5064093;28;20475;-66
2022/09/22 08:23:30;;;;;;;23.90;14.65;;;27.80;99.90;;;;;;5063186;28;20039;-66
2022/09/22 08:26:02;;;;;;;21.63;14.00;;;27.90;99.90;;;;;;5064458;28;20020;-66
2022/09/22 08:28:28;;;;;;;53.67;27.60;;;27.90;99.90;;;;;;5065129;28;20029;-66
2022/09/22 08:30:55;;;;;;;150.73;96.22;;;27.90;99.90;;;;;;5063482;28;20023;-66
2022/09/22 08:33:22;;;;;;;158.65;102.63;;;27.90;99.90;;;;;;5062322;28;20021;-66
2022/09/22 08:35:54;;;;;;;138.63;82.07;;;27.90;99.90;;;;;;5059153;28;20467;-68
2022/09/22 08:38:22;;;;;;;101.28;62.80;;;28.00;99.90;;;;;;5060054;28;20104;-66
2022/09/22 08:41:07;;;;;;;68.43;42.88;;;28.00;99.90;;;;;;5064441;28;20478;-66
2022/09/22 08:43:34;;;;;;;69.75;39.30;;;28.00;99.90;;;;;;5064378;28;20036;-66
2022/09/22 08:46:03;;;;;;;81.80;47.75;;;27.90;99.90;;;;;;5063337;28;20361;-66
2022/09/22 08:53:50;;;;;;;82.78;43.28;;;27.90;99.90;;;;;;5065362;28;20091;-66
2022/09/22 08:56:28;;;;;;;78.50;41.75;;;27.90;99.90;;;;;;5065062;28;20069;-66
2022/09/22 08:59:07;;;;;;;67.53;37.03;;;27.80;99.90;;;;;;5061091;28;20179;-66
2022/09/22 09:01:41;;;;;;;41.13;28.08;;;27.80;99.90;;;;;;5036113;28;20171;-66
2022/09/22 09:04:12;;;;;;;33.45;24.95;;;27.80;99.90;;;;;;5035925;28;20025;-66
2022/09/22 09:06:42;;;;;;;34.70;24.05;;;27.80;99.90;;;;;;5036157;28;20021;-66
2022/09/22 09:09:20;;;;;;;34.13;25.27;;;27.70;99.90;;;;;;5036369;28;20032;-66
2022/09/22 09:12:13;;;;;;;41.42;28.67;;;27.60;99.90;;;;;;5036311;28;20021;-66
2022/09/22 09:14:45;;;;;;;33.55;24.83;;;27.50;99.90;;;;;;5039116;28;20071;-66
2022/09/22 09:17:14;;;;;;;34.42;25.13;;;27.50;99.90;;;;;;5056111;28;20438;-66
2022/09/22 09:19:43;;;;;;;29.50;23.33;;;27.60;99.90;;;;;;5055756;28;20033;-66
2022/09/22 09:22:23;;;;;;;31.48;23.77;;;27.60;99.90;;;;;;5056396;28;20029;-66
2022/09/22 09:25:04;;;;;;;31.30;23.77;;;27.50;99.90;;;;;;5055492;28;20032;-65
2022/09/22 09:27:39;;;;;;;55.97;40.17;;;27.50;99.90;;;;;;5061854;28;20024;-68
2022/09/22 09:30:09;;;;;;;43.38;27.38;;;27.40;99.90;;;;;;5064947;28;20017;-65
2022/09/22 09:32:51;;;;;;;38.47;26.88;;;27.40;99.90;;;;;;5068180;28;20037;-67
2022/09/22 09:35:27;;;;;;;45.25;33.42;;;27.40;99.90;;;;;;5063665;28;20024;-67
2022/09/22 09:37:59;;;;;;;34.40;25.42;;;27.40;99.90;;;;;;5063661;28;20483;-64
2022/09/22 09:40:27;;;;;;;36.72;30.08;;;27.40;99.90;;;;;;5060696;28;20029;-66
2022/09/22 09:43:02;;;;;;;46.63;36.10;;;27.30;99.90;;;;;;5062467;28;20016;-65
2022/09/22 09:45:50;;;;;;;53.33;37.35;;;27.20;99.90;;;;;;5060375;28;20471;-65
2022/09/22 09:48:17;;;;;;;59.10;44.60;;;27.30;99.90;;;;;;5052496;28;20029;-64
2022/09/22 09:50:44;;;;;;;56.20;43.45;;;27.40;99.90;;;;;;5063874;28;20016;-65
2022/09/22 09:53:22;;;;;;;50.70;39.05;;;27.40;99.90;;;;;;5063261;28;20013;-66
2022/09/22 09:55:49;;;;;;;49.70;39.53;;;27.50;99.90;;;;;;5060832;28;20033;-66
2022/09/22 10:01:04;;;;;;;110.90;80.20;;;27.50;99.90;;;;;;5025300;28;20071;-65
2022/09/22 10:03:35;;;;;;;119.93;81.90;;;27.50;99.90;;;;;;5063427;28;20025;-65
2022/09/22 10:06:07;;;;;;;153.65;104.45;;;27.50;99.90;;;;;;5061878;28;20056;-65
2022/09/22 10:08:43;;;;;;;136.90;98.13;;;27.50;99.90;;;;;;5062476;28;20028;-65
2022/09/22 10:11:11;;;;;;;66.53;46.92;;;27.50;99.90;;;;;;5060921;28;20048;-66
2022/09/22 10:13:41;;;;;;;124.13;94.78;;;27.50;99.90;;;;;;5062127;28;20491;-66
2022/09/22 10:19:20;;;;;;;62.17;45.85;;;27.40;99.90;;;;;;5063969;28;20067;-66
2022/09/22 10:21:47;;;;;;;62.00;45.45;;;27.30;99.90;;;;;;5064050;28;20463;-66
2022/09/22 10:24:33;;;;;;;56.13;46.25;;;27.20;99.90;;;;;;5064739;28;20031;-65
2022/09/22 10:26:59;;;;;;;61.90;44.58;;;27.20;99.90;;;;;;5065718;28;20031;-65
2022/09/22 10:29:26;;;;;;;56.92;46.58;;;27.20;99.90;;;;;;5065764;28;20021;-66
2022/09/22 10:32:15;;;;;;;57.97;42.50;;;27.20;99.90;;;;;;5066329;28;20043;-65
2022/09/22 10:34:47;;;;;;;62.42;42.20;;;27.20;99.90;;;;;;5061157;28;20405;-65
2022/09/22 10:37:18;;;;;;;49.17;40.83;;;27.10;99.90;;;;;;5060713;28;20028;-66
2022/09/22 10:39:46;;;;;;;49.97;37.15;;;27.10;99.90;;;;;;5058925;28;20289;-66
2022/09/22 10:42:35;;;;;;;46.70;37.50;;;27.10;99.90;;;;;;5065420;28;20033;-64
2022/09/22 10:45:10;;;;;;;43.83;36.03;;;27.10;99.90;;;;;;5066139;28;20020;-64
2022/09/22 10:47:41;;;;;;;44.50;33.83;;;27.00;99.90;;;;;;5061090;28;20009;-61
2022/09/22 10:50:13;;;;;;;43.13;34.30;;;27.00;99.90;;;;;;5063231;28;20016;-64
2022/09/22 10:52:53;;;;;;;43.15;32.25;;;27.00;99.90;;;;;;5065655;28;20029;-64
2022/09/22 10:55:22;;;;;;;38.33;30.52;;;26.90;99.90;;;;;;5065457;28;20037;-63
2022/09/22 10:57:59;;;;;;;37.67;30.05;;;26.80;99.90;;;;;;5066208;28;20048;-63
2022/09/22 11:00:27;;;;;;;41.60;31.77;;;26.80;99.90;;;;;;5065538;28;20028;-62
2022/09/22 11:02:58;;;;;;;40.03;32.88;;;26.80;99.90;;;;;;5066383;28;20108;-63
2022/09/22 11:13:13;;;;;;;40.15;32.58;;;26.70;99.90;;;;;;5065278;28;20025;-63
2022/09/22 11:15:52;;;;;;;38.63;32.15;;;26.70;99.90;;;;;;5064446;28;20071;-63
2022/09/22 11:18:22;;;;;;;41.47;28.13;;;26.70;99.90;;;;;;5063770;28;20064;-63
2022/09/22 11:21:12;;;;;;;39.45;29.58;;;26.70;99.90;;;;;;5066095;28;20386;-65
2022/09/22 11:23:43;;;;;;;38.08;27.25;;;26.60;99.90;;;;;;5048973;28;20044;-64
2022/09/22 11:26:13;;;;;;;35.75;25.38;;;26.60;99.90;;;;;;5062746;28;20468;-64
2022/09/22 11:29:19;;;;;;;32.42;23.55;;;26.60;99.90;;;;;;5064393;28;20025;-65
2022/09/22 11:31:59;;;;;;;27.65;22.60;;;26.60;99.90;;;;;;5063758;28;20041;-65
2022/09/22 11:34:54;;;;;;;33.22;22.23;;;26.60;99.90;;;;;;5061670;28;20032;-65
2022/09/22 11:37:24;;;;;;;33.25;24.33;;;26.50;99.90;;;;;;5059701;28;20512;-65
2022/09/22 11:40:15;;;;;;;37.80;25.80;;;26.60;99.90;;;;;;5063543;28;20035;-65
2022/09/22 11:42:50;;;;;;;37.13;27.85;;;26.50;99.90;;;;;;5061243;28;20056;-65
2022/09/22 11:45:29;;;;;;;40.13;29.98;;;26.50;99.90;;;;;;5064066;28;20071;-65
2022/09/22 11:48:00;;;;;;;45.42;31.83;;;26.50;99.90;;;;;;5064036;28;20031;-66
2022/09/22 11:50:34;;;;;;;45.40;32.97;;;26.50;99.90;;;;;;5062019;28;20103;-65
2022/09/22 11:53:04;;;;;;;49.70;34.42;;;26.50;99.90;;;;;;5063517;28;20108;-65
2022/09/22 11:55:38;;;;;;;42.40;31.67;;;26.40;99.90;;;;;;5064802;28;20024;-66
2022/09/22 11:58:13;;;;;;;46.78;34.65;;;26.50;99.90;;;;;;5061067;28;20090;-66
2022/09/22 12:00:49;;;;;;;52.60;40.05;;;26.40;99.90;;;;;;5063555;28;20021;-65
2022/09/22 12:03:22;;;;;;;54.85;38.78;;;26.50;99.90;;;;;;5063024;28;20020;-66
2022/09/22 12:06:04;;;;;;;67.60;43.05;;;26.40;99.90;;;;;;5061790;28;20356;-66
2022/09/22 12:08:41;;;;;;;60.97;39.60;;;26.30;99.90;;;;;;5061879;28;20025;-66
2022/09/22 12:11:12;;;;;;;66.57;41.28;;;26.40;99.90;;;;;;5061056;28;20025;-66
2022/09/22 12:13:44;;;;;;;63.78;42.40;;;26.40;99.90;;;;;;5062351;28;20033;-66
2022/09/22 12:16:18;;;;;;;58.30;40.38;;;26.40;99.90;;;;;;5063653;28;20025;-66
2022/09/22 12:18:54;;;;;;;47.10;35.97;;;26.30;99.90;;;;;;5060304;28;20029;-65
2022/09/22 12:21:30;;;;;;;48.35;34.60;;;26.40;99.90;;;;;;5062668;28;20032;-65
2022/09/22 12:24:02;;;;;;;36.10;29.08;;;26.40;99.90;;;;;;5062760;28;20028;-66
2022/09/22 12:26:30;;;;;;;41.75;29.10;;;26.40;99.90;;;;;;5060000;28;20024;-65
2022/09/22 12:28:58;;;;;;;40.55;28.05;;;26.30;99.90;;;;;;5064809;28;20052;-65
2022/09/22 12:31:30;;;;;;;40.00;28.00;;;26.40;99.90;;;;;;5059584;28;20379;-66
2022/09/22 12:33:57;;;;;;;41.20;31.02;;;26.40;99.90;;;;;;5062849;28;20021;-66
2022/09/22 12:36:30;;;;;;;40.78;31.27;;;26.50;99.90;;;;;;5056625;28;20395;-66
2022/09/22 12:39:02;;;;;;;46.47;35.10;;;26.40;99.90;;;;;;5062666;28;20032;-65
2022/09/22 12:41:29;;;;;;;46.75;33.75;;;26.40;99.90;;;;;;5060206;28;20028;-66
2022/09/22 12:44:07;;;;;;;38.92;33.47;;;26.50;99.90;;;;;;5063578;28;20049;-66
2022/09/22 12:46:34;;;;;;;48.95;38.53;;;26.50;99.90;;;;;;5056129;28;20087;-66
2022/09/22 12:49:08;;;;;;;45.75;35.80;;;26.40;99.90;;;;;;5057611;28;20399;-66
2022/09/22 12:51:34;;;;;;;41.33;33.13;;;26.50;99.90;;;;;;5058863;28;20023;-66
2022/09/22 12:54:25;;;;;;;47.42;33.28;;;26.40;99.90;;;;;;5063288;28;20479;-66
2022/09/22 12:56:56;;;;;;;45.03;33.13;;;26.50;99.90;;;;;;5060953;28;20469;-66
2022/09/22 12:59:28;;;;;;;49.17;33.63;;;26.50;99.90;;;;;;5052576;28;20525;-65
2022/09/22 13:02:01;;;;;;;45.10;33.53;;;26.50;99.90;;;;;;5052981;28;20033;-65
2022/09/22 13:04:27;;;;;;;42.92;31.95;;;26.60;99.90;;;;;;5053362;28;20036;-65
2022/09/22 13:06:56;;;;;;;40.78;31.98;;;26.50;99.90;;;;;;5052697;28;20053;-65
2022/09/22 13:09:25;;;;;;;46.50;33.67;;;26.50;99.90;;;;;;5052229;28;20476;-66